Time;durP1;ratioP1;P1;durP2;ratioP2;P2;SDS_P1;SDS_P2;PMS_P1;PMS_P2;Temp;Humidity;BMP_temperature;BMP_pressure;BME280_temperature;BME280_humidity;BME280_pressure;Samples;Min_cycle;Max_cycle;Signal;HPM_P1;HPM_P2
2023/05/08 00:00:23;;;;;;;13.93;7.12;;;;;;;7.82;92.78;102017.08;4979617;57;1138869;-80
2023/05/08 00:05:31;;;;;;;23.92;11.70;;;;;;;7.75;92.84;102008.59;4999309;57;1136761;-80
2023/05/08 00:10:36;;;;;;;16.47;7.80;;;;;;;7.68;93.25;102011.07;4979332;57;1138887;-77
2023/05/08 00:15:42;;;;;;;27.33;13.97;;;;;;;7.64;92.67;102008.16;4966401;57;1138875;-76
2023/05/08 00:20:48;;;;;;;17.27;7.72;;;;;;;7.66;93.41;102012.45;4979673;56;1140923;-78
2023/05/08 00:25:53;;;;;;;36.93;16.40;;;;;;;7.64;93.38;102009.02;4999310;57;1138684;-78
2023/05/08 00:31:01;;;;;;;34.07;16.37;;;;;;;7.60;93.38;102020.63;4979468;56;1140779;-76
2023/05/08 00:36:07;;;;;;;43.50;19.43;;;;;;;7.50;93.03;102021.03;4980082;56;1138950;-78
2023/05/08 00:41:13;;;;;;;40.87;16.40;;;;;;;7.37;93.03;102020.69;4999804;56;1139008;-76
2023/05/08 00:46:19;;;;;;;37.70;16.03;;;;;;;7.22;93.42;102016.89;4980087;57;1139204;-77
2023/05/08 00:51:24;;;;;;;11.90;6.40;;;;;;;7.09;93.48;102025.33;4980371;57;1138791;-79
2023/05/08 00:56:31;;;;;;;16.20;7.12;;;;;;;7.04;94.25;102030.77;4943699;57;1136782;-77
2023/05/08 01:01:38;;;;;;;10.10;5.57;;;;;;;7.04;94.65;102032.08;4900653;58;1138713;-78
2023/05/08 01:06:44;;;;;;;31.17;13.60;;;;;;;7.13;95.40;102026.48;4900636;58;1138734;-75
2023/05/08 01:12:03;;;;;;;78.35;27.90;;;;;;;7.18;95.75;102028.94;4960484;56;1141191;-77
2023/05/08 01:17:46;;;;;;;14.38;7.17;;;;;;;7.15;95.51;102039.58;4998101;57;1140885;-78
2023/05/08 01:23:15;;;;;;;9.43;6.83;;;;;;;7.09;95.14;102039.80;4980307;58;1136725;-77
2023/05/08 01:28:55;;;;;;;25.87;12.30;;;;;;;7.01;95.10;102040.11;4980711;57;1134586;-77
2023/05/08 01:34:08;;;;;;;23.83;11.77;;;;;;;6.92;95.12;102042.62;4979882;57;1138807;-78
2023/05/08 01:39:33;;;;;;;17.40;8.67;;;;;;;6.82;95.01;102053.55;5000323;57;1138859;-79
2023/05/08 01:44:45;;;;;;;14.10;8.77;;;;;;;6.71;95.04;102048.70;4853074;58;1136668;-76
2023/05/08 01:49:57;;;;;;;19.47;9.63;;;;;;;6.61;95.13;102050.80;4819723;59;1136762;-78
2023/05/08 01:55:07;;;;;;;10.98;7.17;;;;;;;6.51;94.96;102052.05;4851945;58;1136549;-77
2023/05/08 02:00:15;;;;;;;22.37;13.13;;;;;;;6.47;95.95;102046.50;4999965;57;1136866;-79
2023/05/08 02:05:23;;;;;;;19.00;9.87;;;;;;;6.42;95.67;102050.19;4900652;57;1138868;-78
2023/05/08 02:10:30;;;;;;;16.40;8.48;;;;;;;6.33;95.67;102056.20;4858286;59;1138710;-80
2023/05/08 02:15:38;;;;;;;12.98;6.20;;;;;;;6.28;95.65;102061.20;4935811;57;1138743;-79
2023/05/08 02:20:44;;;;;;;16.67;10.00;;;;;;;6.23;95.78;102060.07;4980315;57;1136736;-78
2023/05/08 02:25:52;;;;;;;11.85;8.00;;;;;;;6.20;96.94;102056.69;4980139;57;1138839;-78
2023/05/08 02:30:59;;;;;;;14.97;8.90;;;;;;;6.21;97.21;102066.28;4999649;57;1136858;-77
2023/05/08 02:36:06;;;;;;;11.67;7.27;;;;;;;6.17;96.88;102066.84;4980199;57;1136701;-75
2023/05/08 02:41:14;;;;;;;16.43;7.40;;;;;;;6.10;96.98;102063.17;4980294;57;1136946;-80
2023/05/08 02:46:27;;;;;;;12.57;8.07;;;;;;;6.03;97.48;102065.14;4987919;57;1136695;-78
2023/05/08 02:51:57;;;;;;;9.40;6.72;;;;;;;6.02;97.99;102063.42;4984250;57;1138850;-76
2023/05/08 02:57:26;;;;;;;11.17;7.33;;;;;;;6.07;98.71;102067.22;5008179;57;1136709;-79
2023/05/08 03:02:39;;;;;;;12.70;7.33;;;;;;;6.00;97.00;102072.66;5013576;56;1136779;-78
2023/05/08 03:07:49;;;;;;;12.85;7.33;;;;;;;5.70;95.52;102072.33;5013667;57;1136751;-77
2023/05/08 03:12:57;;;;;;;11.27;7.53;;;;;;;5.68;97.75;102079.40;5033015;56;1136756;-80
2023/05/08 03:18:07;;;;;;;12.40;7.33;;;;;;;5.68;97.97;102079.40;5013176;56;1136937;-76
2023/05/08 03:23:16;;;;;;;14.23;8.00;;;;;;;5.66;98.64;102081.20;4996657;56;1136742;-79
2023/05/08 03:28:22;;;;;;;16.33;6.40;;;;;;;5.64;98.97;102085.22;5026991;56;1136836;-77
2023/05/08 03:33:31;;;;;;;9.78;6.45;;;;;;;5.64;99.18;102086.98;4927890;58;1136724;-78
2023/05/08 03:38:37;;;;;;;8.93;6.63;;;;;;;5.62;99.51;102086.17;4928024;57;1136863;-76
2023/05/08 03:43:45;;;;;;;19.77;7.78;;;;;;;5.63;100.00;102084.81;4998821;57;1136958;-79
2023/05/08 03:48:52;;;;;;;18.03;8.60;;;;;;;5.60;100.00;102090.61;4996441;56;1139120;-80
2023/05/08 03:53:57;;;;;;;11.68;7.33;;;;;;;5.49;100.00;102096.66;4980019;57;1138874;-75
2023/05/08 03:59:23;;;;;;;10.53;6.53;;;;;;;5.36;100.00;102092.67;4983839;57;1138859;-74
2023/05/08 04:04:41;;;;;;;16.95;7.17;;;;;;;5.32;100.00;102101.11;5004299;57;1140740;-79
2023/05/08 04:10:20;;;;;;;11.33;8.10;;;;;;;5.34;100.00;102111.11;5013972;57;1140977;-75
2023/05/08 04:15:29;;;;;;;15.70;9.07;;;;;;;5.39;100.00;102110.95;5008988;57;1138724;-80
2023/05/08 04:20:36;;;;;;;13.13;8.35;;;;;;;5.45;100.00;102118.64;5033247;56;1138988;-77
2023/05/08 04:25:44;;;;;;;11.70;7.12;;;;;;;5.51;100.00;102111.87;5009173;56;1140987;-76
2023/05/08 04:30:51;;;;;;;14.80;7.42;;;;;;;5.63;100.00;102112.83;5013348;56;1141037;-74
2023/05/08 04:36:00;;;;;;;11.43;7.97;;;;;;;5.72;100.00;102112.52;5013663;55;1140881;-80
2023/05/08 04:41:06;;;;;;;12.60;8.40;;;;;;;5.79;100.00;102115.38;5005701;56;1138842;-75
2023/05/08 04:46:12;;;;;;;16.03;7.77;;;;;;;5.87;100.00;102123.84;5007781;56;1138871;-78
2023/05/08 04:51:18;;;;;;;23.00;7.23;;;;;;;5.97;100.00;102122.66;5032640;57;1140833;-78
2023/05/08 04:56:23;;;;;;;13.20;6.20;;;;;;;6.04;100.00;102126.41;5052820;56;1141038;-76
2023/05/08 05:01:29;;;;;;;13.58;7.20;;;;;;;6.19;100.00;102138.58;5032471;56;1138908;-79
2023/05/08 05:06:35;;;;;;;12.87;6.57;;;;;;;6.30;100.00;102140.83;5032872;56;1140970;-77
2023/05/08 05:11:41;;;;;;;9.83;6.23;;;;;;;6.50;100.00;102141.02;5052800;57;1140995;-79
2023/05/08 05:16:46;;;;;;;11.43;7.10;;;;;;;6.76;100.00;102152.37;5029868;56;1138650;-78
2023/05/08 05:21:52;;;;;;;14.63;6.37;;;;;;;6.98;100.00;102155.51;5033177;56;1140939;-78
2023/05/08 05:26:59;;;;;;;8.43;5.90;;;;;;;7.28;100.00;102160.55;5052764;57;1140972;-79
2023/05/08 05:32:08;;;;;;;14.00;7.77;;;;;;;7.62;100.00;102165.37;5033226;57;1138817;-75
2023/05/08 05:37:12;;;;;;;10.20;5.17;;;;;;;7.97;100.00;102168.77;5033130;56;1141045;-77
2023/05/08 05:42:18;;;;;;;6.37;4.77;;;;;;;8.29;100.00;102170.08;5052820;56;1141011;-78
2023/05/08 05:47:24;;;;;;;5.60;4.43;;;;;;;8.58;100.00;102168.02;5032888;56;1145629;-78
2023/05/08 05:52:29;;;;;;;6.37;4.25;;;;;;;8.78;100.00;102165.39;4989817;57;1138795;-75
2023/05/08 05:57:36;;;;;;;9.20;3.87;;;;;;;9.01;100.00;102177.58;4926925;58;1138852;-79
2023/05/08 06:02:42;;;;;;;8.87;4.67;;;;;;;9.26;100.00;102176.86;4900651;58;1138698;-77
2023/05/08 06:07:50;;;;;;;4.50;3.47;;;;;;;9.39;99.98;102178.46;4900492;58;1138891;-75
2023/05/08 06:12:55;;;;;;;4.85;3.50;;;;;;;9.50;98.67;102178.81;4963602;57;1136784;-82
2023/05/08 06:18:01;;;;;;;10.00;3.60;;;;;;;9.59;95.55;102181.51;4961396;57;1136603;-80
2023/05/08 06:23:08;;;;;;;7.63;3.70;;;;;;;9.70;92.99;102180.06;4980136;57;1138803;-76
2023/05/08 06:28:13;;;;;;;10.15;6.58;;;;;;;9.76;93.56;102181.11;4979966;58;1136603;-79
2023/05/08 06:33:19;;;;;;;46.10;17.80;;;;;;;9.97;93.22;102187.59;4999683;57;1138851;-80
2023/05/08 06:38:25;;;;;;;8.33;4.97;;;;;;;10.15;93.42;102190.20;4979923;57;1140943;-80
2023/05/08 06:43:31;;;;;;;6.80;3.77;;;;;;;10.29;89.11;102192.66;4980464;56;1138852;-81
2023/05/08 06:48:36;;;;;;;4.62;3.77;;;;;;;10.45;90.46;102191.81;4999648;57;1138704;-80
2023/05/08 06:53:42;;;;;;;5.45;3.22;;;;;;;10.53;88.94;102190.98;4968429;56;1138824;-77
2023/05/08 06:58:47;;;;;;;3.17;2.87;;;;;;;10.71;85.92;102186.51;4900237;56;1138805;-76
2023/05/08 07:03:53;;;;;;;3.30;2.43;;;;;;;10.85;83.95;102186.64;4901152;57;1138856;-80
2023/05/08 07:08:58;;;;;;;3.17;2.70;;;;;;;10.97;80.33;102192.26;4935356;57;1138823;-75
2023/05/08 07:14:04;;;;;;;4.22;2.75;;;;;;;11.02;79.37;102188.41;4979499;57;1138772;-80
2023/05/08 07:19:10;;;;;;;9.53;2.77;;;;;;;11.22;80.64;102197.95;4979976;56;1138755;-76
2023/05/08 07:24:15;;;;;;;6.23;2.87;;;;;;;11.48;79.68;102198.72;4999413;56;1138794;-75
2023/05/08 07:29:21;;;;;;;5.80;2.53;;;;;;;11.73;76.70;102202.69;4979906;56;1138725;-76
2023/05/08 07:34:26;;;;;;;6.43;3.33;;;;;;;11.91;76.83;102206.53;4980316;56;1138763;-78
2023/05/08 07:39:32;;;;;;;5.17;2.10;;;;;;;12.00;74.19;102209.11;4999577;56;1138837;-80
2023/05/08 07:44:38;;;;;;;3.55;2.70;;;;;;;12.05;73.51;102215.50;4980639;56;1138915;-79
2023/05/08 07:49:43;;;;;;;3.17;2.87;;;;;;;12.19;71.07;102219.06;4980404;57;1138976;-75
2023/05/08 07:54:49;;;;;;;4.03;2.50;;;;;;;12.28;74.70;102206.59;5004855;56;1139015;-79
2023/05/08 07:59:54;;;;;;;4.20;3.43;;;;;;;12.49;69.87;102202.31;5053176;56;1138800;-76
2023/05/08 08:05:00;;;;;;;8.03;3.47;;;;;;;12.65;75.07;102211.94;5033234;56;1138784;-78
2023/05/08 08:10:07;;;;;;;10.80;4.10;;;;;;;12.72;69.06;102198.28;5033282;57;1138739;-79
2023/05/08 08:15:12;;;;;;;6.77;3.20;;;;;;;12.70;69.97;102208.98;5052844;56;1140896;-79
2023/05/08 08:20:18;;;;;;;6.30;2.90;;;;;;;12.85;71.16;102198.77;5030376;56;1139432;-75
2023/05/08 08:25:24;;;;;;;3.00;2.70;;;;;;;12.88;69.02;102200.39;5033058;57;1138798;-80
2023/05/08 08:30:30;;;;;;;16.17;3.37;;;;;;;13.02;71.34;102195.09;5020101;55;1138813;-80
2023/05/08 08:35:35;;;;;;;3.08;2.77;;;;;;;13.16;70.91;102193.80;4951703;57;1140803;-76
2023/05/08 08:40:44;;;;;;;3.37;3.07;;;;;;;13.43;69.49;102189.07;4951592;57;1138766;-75
2023/05/08 08:45:49;;;;;;;8.63;2.95;;;;;;;13.51;69.10;102188.95;4951816;57;1138865;-77
2023/05/08 08:50:59;;;;;;;7.60;3.30;;;;;;;13.51;69.10;102188.95;4990677;57;1138753;-78
2023/05/08 08:56:07;;;;;;;9.67;4.40;;;;;;;13.65;68.44;102192.05;5009201;57;1139046;-76
2023/05/08 09:01:17;;;;;;;6.67;4.20;;;;;;;13.65;67.09;102185.41;5012287;57;1138832;-75
2023/05/08 09:06:23;;;;;;;4.83;3.83;;;;;;;13.80;68.51;102188.41;5052945;56;1138717;-75
2023/05/08 09:11:29;;;;;;;5.40;3.53;;;;;;;13.83;65.24;102170.94;5033656;56;1138734;-77
2023/05/08 09:16:35;;;;;;;7.87;3.27;;;;;;;13.91;64.82;102170.42;5025352;56;1138718;-76
2023/05/08 09:21:41;;;;;;;4.08;3.00;;;;;;;14.04;62.41;102164.22;5033425;56;1139042;-80
2023/05/08 09:26:47;;;;;;;5.47;3.30;;;;;;;14.16;62.92;102167.02;5013400;57;1138953;-78
2023/05/08 09:31:53;;;;;;;12.80;4.00;;;;;;;14.33;67.25;102155.63;5013717;57;1139006;-78
2023/05/08 09:37:13;;;;;;;8.00;3.20;;;;;;;14.43;63.00;102159.39;5032882;56;1140808;-79
2023/05/08 09:42:19;;;;;;;4.83;2.70;;;;;;;14.54;61.65;102164.45;5024703;56;1138659;-78
2023/05/08 09:47:25;;;;;;;7.77;3.73;;;;;;;14.61;62.77;102157.77;5026992;56;1139042;-76
2023/05/08 09:52:33;;;;;;;6.17;3.80;;;;;;;14.59;57.29;102161.02;5048291;56;1139020;-78
2023/05/08 09:57:43;;;;;;;4.92;2.58;;;;;;;14.64;57.82;102156.23;4977091;56;1138838;-77
2023/05/08 10:02:58;;;;;;;88.43;74.83;;;;;;;14.72;57.86;102146.75;5018477;56;1139134;-77
2023/05/08 10:08:30;;;;;;;3.90;3.53;;;;;;;14.81;57.58;102152.41;5027325;56;1143013;-78
2023/05/08 10:13:31;;;;;;;3.43;3.13;;;;;;;14.87;60.00;102139.98;5052205;56;1138752;-78
2023/05/08 10:18:40;;;;;;;5.20;2.80;;;;;;;15.14;55.60;102142.03;5029845;55;1138890;-78
2023/05/08 10:23:48;;;;;;;6.40;2.60;;;;;;;15.21;57.83;102147.78;5033006;56;1138832;-78
2023/05/08 10:29:07;;;;;;;11.78;3.33;;;;;;;15.19;55.49;102125.72;5033234;55;1138874;-77
2023/05/08 10:34:18;;;;;;;5.80;2.58;;;;;;;15.26;58.32;102131.00;5051990;55;1141098;-77
2023/05/08 10:39:24;;;;;;;5.03;3.03;;;;;;;15.36;56.30;102130.69;5032455;57;1139026;-81
2023/05/08 10:44:30;;;;;;;3.03;2.50;;;;;;;15.58;59.00;102128.70;4868661;57;1139049;-77
2023/05/08 10:49:49;;;;;;;6.37;2.77;;;;;;;15.71;53.58;102109.02;4976569;57;1138726;-78
2023/05/08 10:55:03;;;;;;;6.83;2.77;;;;;;;15.69;54.96;102118.09;5032536;57;1138892;-78
2023/05/08 11:00:08;;;;;;;4.17;3.27;;;;;;;15.75;54.62;102103.80;5014575;57;1138837;-79
2023/05/08 11:05:19;;;;;;;4.63;2.93;;;;;;;15.81;56.83;102112.69;4999234;57;1138743;-79
2023/05/08 11:10:35;;;;;;;3.60;2.57;;;;;;;16.03;56.11;102111.10;4979760;57;1138911;-78
2023/05/08 11:15:41;;;;;;;4.17;3.12;;;;;;;16.07;53.50;102104.54;4978852;57;1138872;-79
2023/05/08 11:20:59;;;;;;;6.65;2.67;;;;;;;16.17;54.85;102103.75;4979916;56;1138984;-78
2023/05/08 11:26:13;;;;;;;11.13;3.93;;;;;;;16.22;56.71;102087.36;4999292;57;1138754;-76
2023/05/08 11:31:19;;;;;;;4.13;2.60;;;;;;;16.43;54.36;102087.05;4979482;57;1141108;-78
2023/05/08 11:36:25;;;;;;;3.47;2.43;;;;;;;16.54;50.81;102085.73;4979776;57;1138812;-77
2023/05/08 11:41:30;;;;;;;2.47;2.27;;;;;;;16.50;48.81;102080.73;4999671;57;1139058;-78
2023/05/08 11:46:46;;;;;;;3.20;2.83;;;;;;;16.47;51.34;102068.50;4980556;57;1138979;-80
2023/05/08 11:51:56;;;;;;;4.40;3.37;;;;;;;16.62;52.33;102066.45;4980041;56;1138977;-80
2023/05/08 11:57:02;;;;;;;5.30;3.03;;;;;;;16.74;52.07;102073.53;4980065;57;1138796;-76
2023/05/08 12:02:08;;;;;;;3.30;3.00;;;;;;;16.82;48.98;102072.42;4999500;57;1138884;-78
2023/05/08 12:07:15;;;;;;;7.30;2.47;;;;;;;16.93;50.66;102066.73;4975535;57;1138898;-79
2023/05/08 12:12:20;;;;;;;15.70;3.60;;;;;;;17.02;52.52;102061.48;4975274;57;1138863;-78
2023/05/08 12:17:26;;;;;;;5.87;3.43;;;;;;;17.15;51.80;102051.50;4894794;58;1140872;-79
2023/05/08 12:22:32;;;;;;;5.87;3.27;;;;;;;17.19;48.01;102054.30;4797608;59;1258001;-78
2023/05/08 12:27:39;;;;;;;7.10;3.30;;;;;;;17.20;46.68;102055.14;4900302;58;1138801;-79
2023/05/08 12:32:46;;;;;;;3.26;2.60;;;;;;;17.17;47.68;102057.58;4907537;57;1138997;-80
2023/05/08 12:37:52;;;;;;;5.83;3.47;;;;;;;17.27;46.78;102058.16;4909949;58;1138795;-80
2023/05/08 12:43:00;;;;;;;6.07;4.20;;;;;;;17.42;49.39;102048.88;4957139;56;1138947;-78
2023/05/08 12:48:09;;;;;;;36.23;14.40;;;;;;;17.41;46.17;102044.53;4980696;57;1138935;-76
2023/05/08 12:53:17;;;;;;;3.67;3.07;;;;;;;17.39;46.10;102040.64;4965419;57;1142998;-80
2023/05/08 12:58:31;;;;;;;10.40;5.57;;;;;;;17.44;47.55;102032.22;4980326;56;1138991;-79
2023/05/08 13:03:37;;;;;;;5.63;3.80;;;;;;;17.45;45.05;102032.58;4980054;57;1140881;-79
2023/05/08 13:08:42;;;;;;;9.38;5.12;;;;;;;17.37;44.36;102029.70;4999766;57;1138733;-80
2023/05/08 13:13:48;;;;;;;20.25;9.30;;;;;;;17.20;45.44;102022.58;4980354;57;1138901;-79
2023/05/08 13:18:54;;;;;;;6.50;5.12;;;;;;;17.44;48.70;102018.36;4975281;57;1140918;-80
2023/05/08 13:24:00;;;;;;;6.70;5.60;;;;;;;17.56;45.98;102012.50;4999808;57;1138741;-79
2023/05/08 13:29:05;;;;;;;9.67;2.47;;;;;;;17.49;42.74;102019.33;4980411;56;1139112;-76
2023/05/08 13:34:11;;;;;;;5.40;2.90;;;;;;;17.51;43.52;102013.36;4979876;56;1138877;-77
2023/05/08 13:39:16;;;;;;;7.50;4.07;;;;;;;17.54;43.38;102007.77;4999353;56;1138724;-79
2023/05/08 13:44:22;;;;;;;11.07;7.40;;;;;;;17.60;44.92;102004.55;4980096;56;1138675;-77
2023/05/08 13:49:28;;;;;;;8.00;3.27;;;;;;;17.57;43.15;102001.64;4980289;57;1140951;-77
2023/05/08 13:54:33;;;;;;;9.60;5.33;;;;;;;17.58;46.22;101985.10;5000038;56;1138748;-77
2023/05/08 13:59:39;;;;;;;4.90;2.50;;;;;;;17.61;43.92;101986.67;4980561;57;1138800;-76
2023/05/08 14:04:45;;;;;;;5.43;2.90;;;;;;;17.38;43.80;101988.12;4980352;57;1138785;-78
2023/05/08 14:09:50;;;;;;;6.06;4.68;;;;;;;17.41;43.90;101983.02;4980766;57;1138922;-80
2023/05/08 14:14:57;;;;;;;10.10;6.33;;;;;;;17.43;42.75;101987.23;4994785;57;1138646;-80
2023/05/08 14:20:02;;;;;;;9.83;5.57;;;;;;;17.40;43.73;101982.66;4979671;57;1140972;-79
2023/05/08 14:25:09;;;;;;;10.17;5.23;;;;;;;17.51;43.30;101989.28;4980000;57;1138734;-81
2023/05/08 14:30:15;;;;;;;3.50;3.10;;;;;;;17.55;43.54;101984.05;4999002;56;1140974;-78
2023/05/08 14:35:20;;;;;;;8.33;7.03;;;;;;;17.58;41.88;101978.41;4980090;57;1138885;-77
2023/05/08 14:40:26;;;;;;;5.87;3.83;;;;;;;17.56;42.62;101981.25;4964574;56;1138736;-79
2023/05/08 14:45:32;;;;;;;12.82;3.44;;;;;;;17.64;44.39;101976.61;4991065;57;1138870;-77
2023/05/08 14:50:38;;;;;;;8.17;4.73;;;;;;;17.72;44.71;101971.44;4939004;58;1140859;-81
2023/05/08 14:55:43;;;;;;;4.25;2.58;;;;;;;17.87;43.79;101972.00;4967021;57;1138766;-79
2023/05/08 15:00:49;;;;;;;4.90;3.50;;;;;;;17.73;40.90;101963.77;4980141;57;1138830;-76
2023/05/08 15:05:55;;;;;;;3.73;3.40;;;;;;;17.63;41.65;101965.51;4999620;57;1139003;-77
2023/05/08 15:11:00;;;;;;;3.47;2.40;;;;;;;17.43;41.72;101962.31;5027091;55;1139002;-74
2023/05/08 15:16:06;;;;;;;3.70;2.63;;;;;;;17.42;43.47;101958.78;5027739;56;1138876;-79
2023/05/08 15:21:12;;;;;;;10.33;9.30;;;;;;;17.64;45.08;101950.34;4993761;56;1138746;-79
2023/05/08 15:26:17;;;;;;;6.00;5.40;;;;;;;17.71;42.53;101951.05;4950746;57;1140937;-74
2023/05/08 15:31:23;;;;;;;5.27;3.63;;;;;;;17.65;42.09;101955.56;4951099;57;1138674;-78
2023/05/08 15:36:30;;;;;;;7.30;4.90;;;;;;;17.48;42.08;101956.09;4970645;57;1138826;-79
2023/05/08 15:41:37;;;;;;;5.73;3.83;;;;;;;17.51;42.90;101951.83;5025381;56;1138818;-78
2023/05/08 15:46:42;;;;;;;15.23;10.93;;;;;;;17.37;42.31;101957.00;5033117;56;1138962;-77
2023/05/08 15:51:48;;;;;;;13.83;7.53;;;;;;;17.36;42.91;101945.95;5030244;56;1143266;-82
2023/05/08 15:56:54;;;;;;;7.20;3.43;;;;;;;17.33;42.56;101941.34;5040824;57;1140935;-75
2023/05/08 16:01:59;;;;;;;7.63;3.60;;;;;;;17.29;42.85;101940.73;5020936;57;1138983;-78
2023/05/08 16:07:05;;;;;;;11.03;3.17;;;;;;;17.26;43.30;101931.66;5013779;56;1139288;-81
2023/05/08 16:12:10;;;;;;;9.73;4.80;;;;;;;17.21;42.95;101939.20;5000758;56;1141000;-81
2023/05/08 16:17:16;;;;;;;9.90;4.83;;;;;;;17.24;42.94;101937.61;4942793;57;1138955;-78
2023/05/08 16:22:22;;;;;;;13.67;9.30;;;;;;;17.33;44.49;101931.97;4903146;57;1138798;-81
2023/05/08 16:27:29;;;;;;;14.40;6.83;;;;;;;17.36;42.84;101926.38;4920181;57;1140881;-82
2023/05/08 16:32:34;;;;;;;10.07;7.50;;;;;;;17.26;43.07;101930.80;4901077;57;1150385;-81
2023/05/08 16:37:40;;;;;;;9.95;4.97;;;;;;;17.08;42.75;101932.69;4953701;57;1140938;-78
2023/05/08 16:42:46;;;;;;;10.00;4.87;;;;;;;16.93;42.20;101927.75;4984563;57;1138955;-76
2023/05/08 16:47:51;;;;;;;10.40;5.03;;;;;;;16.77;43.11;101923.66;4999954;56;1141100;-78
2023/05/08 16:52:57;;;;;;;9.60;6.17;;;;;;;16.64;43.25;101939.48;4979990;57;1140979;-78
2023/05/08 16:58:09;;;;;;;22.07;8.55;;;;;;;16.61;44.09;101936.52;4970438;57;1139021;-78
2023/05/08 17:03:10;;;;;;;9.03;4.20;;;;;;;16.62;44.45;101930.70;4939064;56;1140959;-79
2023/05/08 17:08:16;;;;;;;7.77;4.93;;;;;;;16.50;44.53;101928.02;4890733;57;1138881;-78
2023/05/08 17:13:22;;;;;;;7.37;4.47;;;;;;;16.34;44.06;101932.06;4949622;56;1139086;-75
2023/05/08 17:18:28;;;;;;;23.43;9.80;;;;;;;16.18;43.45;101929.75;5032522;56;1138800;-78
2023/05/08 17:23:33;;;;;;;7.93;4.87;;;;;;;16.09;44.41;101929.97;5032322;56;1140818;-76
2023/05/08 17:28:39;;;;;;;12.67;5.60;;;;;;;15.97;43.89;101927.42;5032719;56;1138697;-79
2023/05/08 17:33:44;;;;;;;40.45;17.30;;;;;;;15.91;44.92;101931.41;5052617;56;1140863;-76
2023/05/08 17:38:50;;;;;;;24.50;10.95;;;;;;;15.77;45.11;101931.63;5032642;56;1142821;-79
2023/05/08 17:43:56;;;;;;;51.37;21.83;;;;;;;15.68;45.70;101932.34;5032000;56;1143073;-79
2023/05/08 17:49:02;;;;;;;46.63;17.40;;;;;;;15.60;46.66;101930.24;5051979;56;1142870;-79
2023/05/08 17:54:08;;;;;;;46.27;14.13;;;;;;;15.57;47.04;101937.17;5032097;56;1143047;-75
2023/05/08 17:59:14;;;;;;;30.67;14.90;;;;;;;15.49;47.09;101937.70;5032560;57;1143192;-79
2023/05/08 18:04:19;;;;;;;27.87;10.77;;;;;;;15.39;47.67;101946.04;5052257;57;1142849;-75
2023/05/08 18:09:25;;;;;;;50.70;24.73;;;;;;;15.32;48.04;101942.60;5032589;57;1143001;-75
2023/05/08 18:14:32;;;;;;;32.40;12.77;;;;;;;15.23;48.33;101952.15;5011090;57;1143072;-74
2023/05/08 18:19:38;;;;;;;25.70;13.87;;;;;;;15.14;48.63;101948.81;4934173;58;1143114;-75
2023/05/08 18:24:44;;;;;;;29.77;17.52;;;;;;;15.06;48.85;101953.39;4927625;58;1142952;-74
2023/05/08 18:29:50;;;;;;;20.40;11.83;;;;;;;14.95;49.32;101957.81;4927551;57;1142925;-76
2023/05/08 18:34:56;;;;;;;21.75;11.90;;;;;;;14.86;49.97;101960.65;4927451;58;1142993;-75
2023/05/08 18:40:01;;;;;;;11.93;6.17;;;;;;;14.74;50.26;101957.55;4946813;58;1142997;-76
2023/05/08 18:45:08;;;;;;;11.90;6.77;;;;;;;14.66;50.81;101969.25;4927440;58;1140878;-75
2023/05/08 18:50:14;;;;;;;15.13;6.67;;;;;;;14.56;51.20;101970.84;4927562;58;1140729;-78
2023/05/08 18:55:20;;;;;;;14.93;7.10;;;;;;;14.50;51.71;101980.62;4946489;58;1140957;-75
2023/05/08 19:00:25;;;;;;;15.10;7.37;;;;;;;14.42;52.12;101977.15;4927361;58;1141034;-75
2023/05/08 19:05:31;;;;;;;15.93;9.90;;;;;;;14.33;52.25;101972.45;4927559;58;1140962;-74
2023/05/08 19:10:37;;;;;;;20.43;10.73;;;;;;;14.23;52.56;101979.36;4947155;58;1140834;-75
2023/05/08 19:15:42;;;;;;;22.03;11.13;;;;;;;14.13;52.78;101979.63;4935215;56;1143088;-78
2023/05/08 19:20:48;;;;;;;38.13;15.83;;;;;;;14.08;53.07;101991.91;4975073;57;1143089;-75
2023/05/08 19:25:54;;;;;;;40.00;19.90;;;;;;;13.96;53.14;101988.77;4947439;57;1143132;-77
2023/05/08 19:31:00;;;;;;;28.23;13.53;;;;;;;13.84;53.36;101986.95;4998499;57;1142895;-78
2023/05/08 19:36:05;;;;;;;20.00;10.57;;;;;;;13.71;53.83;101987.79;4930615;58;1142825;-76
2023/05/08 19:41:16;;;;;;;23.47;10.33;;;;;;;13.61;54.09;101980.03;4907406;58;1143034;-77
2023/05/08 19:46:21;;;;;;;17.33;10.47;;;;;;;13.57;54.76;101984.36;4935616;57;1142781;-75
2023/05/08 19:51:27;;;;;;;19.10;10.43;;;;;;;13.57;54.95;101977.71;4933895;57;1142868;-78
2023/05/08 19:56:32;;;;;;;23.07;10.97;;;;;;;13.44;54.73;101976.35;4979436;57;1143179;-79
2023/05/08 20:01:38;;;;;;;29.43;13.57;;;;;;;13.32;54.89;101972.67;4998968;57;1152410;-79
2023/05/08 20:06:44;;;;;;;28.12;11.95;;;;;;;13.16;55.02;101973.30;4967786;56;1143038;-76
2023/05/08 20:11:54;;;;;;;35.70;14.53;;;;;;;13.02;55.66;101964.88;4928701;57;1143311;-76
2023/05/08 20:17:00;;;;;;;35.50;13.77;;;;;;;12.88;56.01;101964.06;4975715;56;1143189;-77
2023/05/08 20:22:05;;;;;;;19.57;10.40;;;;;;;12.85;56.51;101967.77;5006274;57;1142896;-77
2023/05/08 20:27:11;;;;;;;14.47;9.27;;;;;;;12.79;56.74;101975.28;4979200;57;1143060;-76
2023/05/08 20:32:17;;;;;;;18.83;9.57;;;;;;;12.78;56.90;101976.23;4979434;57;1140845;-77
2023/05/08 20:37:23;;;;;;;17.12;10.08;;;;;;;12.68;57.19;101971.95;4999089;57;1140858;-76
2023/05/08 20:42:29;;;;;;;13.13;7.77;;;;;;;12.60;57.43;101972.45;4979234;57;1143124;-76
2023/05/08 20:47:35;;;;;;;16.73;9.40;;;;;;;12.51;57.63;101973.52;4979650;57;1141032;-77
2023/05/08 20:52:40;;;;;;;14.53;9.97;;;;;;;12.46;58.06;101977.78;4946094;58;1147860;-76
2023/05/08 20:57:46;;;;;;;16.80;9.20;;;;;;;12.37;58.22;101965.57;4900147;58;1140690;-76
2023/05/08 21:02:51;;;;;;;25.58;8.90;;;;;;;12.29;58.67;101962.05;4899993;58;1140796;-79
2023/05/08 21:08:01;;;;;;;17.80;10.43;;;;;;;12.19;59.02;101959.59;4918926;58;1141032;-77
2023/05/08 21:13:06;;;;;;;14.03;8.40;;;;;;;12.11;59.55;101957.87;4897956;58;1142833;-76
2023/05/08 21:18:12;;;;;;;14.30;9.00;;;;;;;11.99;59.89;101956.83;4961579;57;1140894;-76
2023/05/08 21:23:19;;;;;;;16.30;8.80;;;;;;;11.89;60.32;101955.21;4998563;57;1140933;-79
2023/05/08 21:28:24;;;;;;;19.03;8.50;;;;;;;11.79;60.84;101952.71;4978833;57;1140767;-77
2023/05/08 21:33:32;;;;;;;20.85;10.55;;;;;;;11.72;61.19;101947.84;4977797;57;1140783;-75
2023/05/08 21:38:37;;;;;;;14.63;8.03;;;;;;;11.63;61.34;101950.56;4998817;57;1142929;-77
2023/05/08 21:43:43;;;;;;;17.63;6.50;;;;;;;11.52;61.36;101940.60;4976606;57;1140896;-80
2023/05/08 21:48:52;;;;;;;10.63;6.70;;;;;;;11.42;61.26;101939.91;4977156;57;1140759;-79
2023/05/08 21:53:58;;;;;;;8.67;5.73;;;;;;;11.38;61.52;101947.66;5033042;57;1140822;-73
2023/05/08 21:59:04;;;;;;;16.37;6.60;;;;;;;11.32;61.87;101945.34;5036722;57;1138660;-78
2023/05/08 22:04:09;;;;;;;21.33;6.60;;;;;;;11.28;62.05;101956.14;5003591;57;1140851;-79
2023/05/08 22:09:15;;;;;;;15.67;6.63;;;;;;;11.23;62.38;101953.36;4957388;57;1140783;-78
2023/05/08 22:14:21;;;;;;;13.20;6.47;;;;;;;11.20;62.80;101957.50;4997785;58;1141107;-77
2023/05/08 22:19:26;;;;;;;9.07;5.73;;;;;;;11.15;62.73;101955.11;4978071;57;1140968;-78
2023/05/08 22:24:32;;;;;;;10.50;6.50;;;;;;;11.14;62.93;101956.08;4977789;57;1138941;-75
2023/05/08 22:29:37;;;;;;;19.00;6.97;;;;;;;11.08;62.94;101947.16;4997247;57;1140746;-77
2023/05/08 22:34:45;;;;;;;17.87;8.30;;;;;;;11.03;63.26;101950.52;4977761;57;1140736;-76
2023/05/08 22:39:50;;;;;;;24.70;9.23;;;;;;;10.94;63.51;101949.73;4971618;57;1140861;-78
2023/05/08 22:44:56;;;;;;;33.10;11.25;;;;;;;10.86;63.97;101946.17;4898795;57;1140832;-76
2023/05/08 22:50:07;;;;;;;38.53;12.70;;;;;;;10.83;64.29;101942.88;4931990;57;1142998;-77
2023/05/08 22:55:10;;;;;;;34.33;12.57;;;;;;;10.83;64.52;101952.13;4979444;57;1143220;-76
2023/05/08 23:00:15;;;;;;;29.77;9.97;;;;;;;10.79;65.02;101952.77;4979207;57;1143033;-78
2023/05/08 23:05:21;;;;;;;30.43;11.50;;;;;;;10.71;65.34;101949.67;4999196;57;1140907;-77